Granville, Massachusetts
Current Conditions -  °F | °C
As of 7:53 AM on Wednesday 22 Oct 2014 (Local Time) from KBAF Reporting Station
Overcast Overcast  
Wind Chill: 52°   Ceiling: 1700
Heat Index: 52°   Visibility: 10mi
Dew Point: 46°   Wind: 12mph
Humidity: 80%   Direction: 10°N
Pressure: 30"   Gusts: NA
Location:  42.07°N, 72.86°W
Report Text: KBAF 221153Z 01010KT 10SM OVC017 11/08 A3000 RMK AO2 SLP162 T01110078 10117 20111 53004
Loading
Personal Weather Stations






























Interactive Weather Map
Tropical Storm Tracking
New forecast layout! Learn more

10-Day Weather Forecast

Advertisements
Track Severe Weather on mobile